Archival Weather

Chicago O'Hare International

Chicago, Illinois (KORD)

Report from: Wednesday, February 16, 2022 7:51 PM CST
Current time: Saturday, February 4, 2023 11:26 PM CST

Current weather
Weather history
Weather forecast

Present weatherLight rain
Temperature12.8°C (55.0°F)
Dew point8.3°C (46.9°F)
Winds 16 kts (8.2 m/s, 18.4 mph) South-Southwest (210°)
Wind gusts 26 kts (13.4 m/s, 29.9 mph)
Peak wind 31 kts (15.9 m/s, 35.7 mph) South-Southwest (200°) at 18:58
Visibility10 mi. (16.1 km)
Clouds Few clouds 1,800 ft. (549 m)
Ceiling: Broken clouds 4,600 ft. (1,402 m)
Overcast 7,000 ft. (2,134 m)
Altimeter29.75 in.Hg (1007 mB)
PrecipitiationTrace
Precip. events Rain ended 7:15 PM
Rain began 7:37 PM
Relative humidity74 %
Density altitude92 ft. (28 m)
Sea-level pressure100.8 kPa (1008 mB, 29.75 in.Hg)
Remarks Automated weather observing station with precipitation discriminator
Flight conditions Visual Meteorological Conditions
Raw dataKORD 170151Z 21016G26KT 10SM -RA FEW018 BKN046 OVC070 13/08 A2975 RMK AO2 PK WND 20031/0058 RAE15B37 SLP075 P0000 T01280083
An unhandled exception has occurred. See browser dev tools for details. Reload 🗙